Moses Lake, Washington
Current Conditions -  °F | °C
As of 5:14 PM on Monday 26 Jan 2015 (Local Time) from KMWH Reporting Station
Moderate Fog Moderate Fog  
Wind Chill: 33°   Ceiling: 100
Heat Index: 38°   Visibility: 0.25mi
Dew Point: 37°   Wind: 6mph
Humidity: 97%   Direction: 110°ESE
Pressure: 30.02"   Gusts: NA
Location:  47.13°N, 119.27°W
Report Text: KMWH 270114Z 11005KT 1/4SM R32R/1400V1600FT FG VV001 03/03 A3002 RMK AO2 T00330028
Loading
Personal Weather Stations






























Interactive Weather Map New forecast layout! Learn more

10-Day Weather Forecast

Advertisements
Track Severe Weather on mobile